sensor_id;sensor_type;location;lat;lon;timestamp;P1;durP1;ratioP1;P2;durP2;ratioP2
27305;SDS011;14792;50.886;6.468;2024-01-30T00:02:51;31.07;;;11.95;;
27305;SDS011;14792;50.886;6.468;2024-01-30T00:05:53;28.65;;;12.25;;
27305;SDS011;14792;50.886;6.468;2024-01-30T00:08:54;29.75;;;12.25;;
27305;SDS011;14792;50.886;6.468;2024-01-30T00:11:56;28.38;;;12.30;;
27305;SDS011;14792;50.886;6.468;2024-01-30T00:14:58;23.70;;;11.75;;
27305;SDS011;14792;50.886;6.468;2024-01-30T00:17:59;21.77;;;11.35;;
27305;SDS011;14792;50.886;6.468;2024-01-30T00:21:01;21.80;;;12.45;;
27305;SDS011;14792;50.886;6.468;2024-01-30T00:24:02;28.25;;;12.35;;
27305;SDS011;14792;50.886;6.468;2024-01-30T00:27:04;24.70;;;11.75;;
27305;SDS011;14792;50.886;6.468;2024-01-30T00:30:06;25.92;;;11.78;;
27305;SDS011;14792;50.886;6.468;2024-01-30T00:33:08;22.40;;;12.60;;
27305;SDS011;14792;50.886;6.468;2024-01-30T00:36:09;26.37;;;11.57;;
27305;SDS011;14792;50.886;6.468;2024-01-30T00:39:10;24.07;;;11.63;;
27305;SDS011;14792;50.886;6.468;2024-01-30T00:42:12;23.70;;;12.05;;
27305;SDS011;14792;50.886;6.468;2024-01-30T00:45:14;23.38;;;12.63;;
27305;SDS011;14792;50.886;6.468;2024-01-30T00:48:15;28.77;;;12.58;;
27305;SDS011;14792;50.886;6.468;2024-01-30T00:51:17;22.45;;;11.53;;
27305;SDS011;14792;50.886;6.468;2024-01-30T00:54:18;22.48;;;11.43;;
27305;SDS011;14792;50.886;6.468;2024-01-30T00:57:20;23.45;;;12.35;;
27305;SDS011;14792;50.886;6.468;2024-01-30T01:00:21;21.15;;;12.05;;
27305;SDS011;14792;50.886;6.468;2024-01-30T01:03:23;23.50;;;12.33;;
27305;SDS011;14792;50.886;6.468;2024-01-30T01:06:25;28.07;;;13.22;;
27305;SDS011;14792;50.886;6.468;2024-01-30T01:09:26;21.93;;;12.25;;
27305;SDS011;14792;50.886;6.468;2024-01-30T01:12:28;23.32;;;12.13;;
27305;SDS011;14792;50.886;6.468;2024-01-30T01:15:29;30.40;;;12.73;;
27305;SDS011;14792;50.886;6.468;2024-01-30T01:18:31;32.85;;;12.23;;
27305;SDS011;14792;50.886;6.468;2024-01-30T01:21:33;34.38;;;13.15;;
27305;SDS011;14792;50.886;6.468;2024-01-30T01:24:35;29.60;;;12.00;;
27305;SDS011;14792;50.886;6.468;2024-01-30T01:27:36;24.52;;;12.47;;
27305;SDS011;14792;50.886;6.468;2024-01-30T01:30:37;24.92;;;13.05;;
27305;SDS011;14792;50.886;6.468;2024-01-30T01:33:39;21.85;;;12.05;;
27305;SDS011;14792;50.886;6.468;2024-01-30T01:36:41;29.63;;;13.20;;
27305;SDS011;14792;50.886;6.468;2024-01-30T01:39:42;30.43;;;12.63;;
27305;SDS011;14792;50.886;6.468;2024-01-30T01:42:44;30.30;;;12.60;;
27305;SDS011;14792;50.886;6.468;2024-01-30T01:45:45;27.85;;;13.05;;
27305;SDS011;14792;50.886;6.468;2024-01-30T01:48:47;30.97;;;12.85;;
27305;SDS011;14792;50.886;6.468;2024-01-30T01:51:48;31.48;;;12.05;;
27305;SDS011;14792;50.886;6.468;2024-01-30T01:54:50;26.75;;;13.78;;
27305;SDS011;14792;50.886;6.468;2024-01-30T01:57:52;33.40;;;12.70;;
27305;SDS011;14792;50.886;6.468;2024-01-30T02:00:53;33.48;;;12.88;;
27305;SDS011;14792;50.886;6.468;2024-01-30T02:03:55;24.43;;;12.68;;
27305;SDS011;14792;50.886;6.468;2024-01-30T02:06:56;29.05;;;12.78;;
27305;SDS011;14792;50.886;6.468;2024-01-30T02:09:58;30.85;;;13.22;;
27305;SDS011;14792;50.886;6.468;2024-01-30T02:13:00;29.72;;;12.82;;
27305;SDS011;14792;50.886;6.468;2024-01-30T02:16:01;27.62;;;12.98;;
27305;SDS011;14792;50.886;6.468;2024-01-30T02:19:03;29.95;;;13.18;;
27305;SDS011;14792;50.886;6.468;2024-01-30T02:22:04;25.55;;;12.53;;
27305;SDS011;14792;50.886;6.468;2024-01-30T02:25:06;38.30;;;13.38;;
27305;SDS011;14792;50.886;6.468;2024-01-30T02:28:07;26.93;;;12.68;;
27305;SDS011;14792;50.886;6.468;2024-01-30T02:31:09;35.48;;;13.85;;
27305;SDS011;14792;50.886;6.468;2024-01-30T02:34:11;25.80;;;13.62;;
27305;SDS011;14792;50.886;6.468;2024-01-30T02:37:12;25.92;;;13.10;;
27305;SDS011;14792;50.886;6.468;2024-01-30T02:40:14;28.00;;;12.82;;
27305;SDS011;14792;50.886;6.468;2024-01-30T02:43:16;32.98;;;13.60;;
27305;SDS011;14792;50.886;6.468;2024-01-30T02:46:17;34.65;;;13.13;;
27305;SDS011;14792;50.886;6.468;2024-01-30T02:49:19;20.90;;;12.20;;
27305;SDS011;14792;50.886;6.468;2024-01-30T02:52:20;21.65;;;13.03;;
27305;SDS011;14792;50.886;6.468;2024-01-30T02:55:22;31.20;;;13.45;;
27305;SDS011;14792;50.886;6.468;2024-01-30T02:58:23;27.40;;;12.60;;
27305;SDS011;14792;50.886;6.468;2024-01-30T03:01:25;30.27;;;13.10;;
27305;SDS011;14792;50.886;6.468;2024-01-30T03:04:27;30.32;;;12.65;;
27305;SDS011;14792;50.886;6.468;2024-01-30T03:07:28;29.10;;;13.28;;
27305;SDS011;14792;50.886;6.468;2024-01-30T03:10:30;24.07;;;12.68;;
27305;SDS011;14792;50.886;6.468;2024-01-30T03:13:31;25.85;;;12.73;;
27305;SDS011;14792;50.886;6.468;2024-01-30T03:16:33;25.50;;;12.35;;
27305;SDS011;14792;50.886;6.468;2024-01-30T03:19:34;23.70;;;12.47;;
27305;SDS011;14792;50.886;6.468;2024-01-30T03:22:36;25.68;;;12.60;;
27305;SDS011;14792;50.886;6.468;2024-01-30T03:25:38;24.18;;;11.90;;
27305;SDS011;14792;50.886;6.468;2024-01-30T03:28:39;23.40;;;12.05;;
27305;SDS011;14792;50.886;6.468;2024-01-30T03:31:41;29.20;;;13.10;;
27305;SDS011;14792;50.886;6.468;2024-01-30T03:34:42;33.70;;;12.75;;
27305;SDS011;14792;50.886;6.468;2024-01-30T03:37:44;31.90;;;12.20;;
27305;SDS011;14792;50.886;6.468;2024-01-30T03:40:46;24.75;;;10.80;;
27305;SDS011;14792;50.886;6.468;2024-01-30T03:43:47;32.13;;;11.88;;
27305;SDS011;14792;50.886;6.468;2024-01-30T03:46:49;28.02;;;11.73;;
27305;SDS011;14792;50.886;6.468;2024-01-30T03:49:50;29.45;;;11.95;;
27305;SDS011;14792;50.886;6.468;2024-01-30T03:52:52;19.75;;;11.33;;
27305;SDS011;14792;50.886;6.468;2024-01-30T03:55:54;28.17;;;10.98;;
27305;SDS011;14792;50.886;6.468;2024-01-30T03:58:55;29.20;;;12.58;;
27305;SDS011;14792;50.886;6.468;2024-01-30T04:01:57;23.38;;;11.20;;
27305;SDS011;14792;50.886;6.468;2024-01-30T04:04:58;19.37;;;11.15;;
27305;SDS011;14792;50.886;6.468;2024-01-30T04:08:00;23.73;;;11.38;;
27305;SDS011;14792;50.886;6.468;2024-01-30T04:11:04;21.00;;;10.95;;
27305;SDS011;14792;50.886;6.468;2024-01-30T04:14:08;23.45;;;10.93;;
27305;SDS011;14792;50.886;6.468;2024-01-30T04:17:10;26.00;;;10.50;;
27305;SDS011;14792;50.886;6.468;2024-01-30T04:20:14;25.70;;;10.28;;
27305;SDS011;14792;50.886;6.468;2024-01-30T04:23:16;20.40;;;9.73;;
27305;SDS011;14792;50.886;6.468;2024-01-30T04:26:17;20.92;;;10.08;;
27305;SDS011;14792;50.886;6.468;2024-01-30T04:29:19;18.50;;;9.73;;
27305;SDS011;14792;50.886;6.468;2024-01-30T04:32:20;19.12;;;10.32;;
27305;SDS011;14792;50.886;6.468;2024-01-30T04:35:22;14.40;;;9.50;;
27305;SDS011;14792;50.886;6.468;2024-01-30T04:38:23;31.15;;;9.90;;
27305;SDS011;14792;50.886;6.468;2024-01-30T04:41:25;20.43;;;9.53;;
27305;SDS011;14792;50.886;6.468;2024-01-30T04:44:27;18.17;;;9.30;;
27305;SDS011;14792;50.886;6.468;2024-01-30T04:47:28;23.75;;;9.00;;
27305;SDS011;14792;50.886;6.468;2024-01-30T04:50:30;18.45;;;9.55;;
27305;SDS011;14792;50.886;6.468;2024-01-30T04:53:31;22.40;;;9.85;;
27305;SDS011;14792;50.886;6.468;2024-01-30T04:56:33;22.70;;;11.05;;
27305;SDS011;14792;50.886;6.468;2024-01-30T04:59:35;17.98;;;10.82;;
27305;SDS011;14792;50.886;6.468;2024-01-30T05:02:36;23.80;;;10.38;;
27305;SDS011;14792;50.886;6.468;2024-01-30T05:05:38;18.75;;;11.00;;
27305;SDS011;14792;50.886;6.468;2024-01-30T05:08:39;21.87;;;10.98;;
27305;SDS011;14792;50.886;6.468;2024-01-30T05:11:41;17.45;;;11.03;;
27305;SDS011;14792;50.886;6.468;2024-01-30T05:14:43;24.57;;;10.65;;
27305;SDS011;14792;50.886;6.468;2024-01-30T05:17:44;19.25;;;10.48;;
27305;SDS011;14792;50.886;6.468;2024-01-30T05:20:46;20.30;;;9.83;;
27305;SDS011;14792;50.886;6.468;2024-01-30T05:23:47;19.23;;;10.55;;
27305;SDS011;14792;50.886;6.468;2024-01-30T05:26:49;22.22;;;11.40;;
27305;SDS011;14792;50.886;6.468;2024-01-30T05:29:50;27.10;;;11.80;;
27305;SDS011;14792;50.886;6.468;2024-01-30T05:32:52;21.12;;;11.10;;
27305;SDS011;14792;50.886;6.468;2024-01-30T05:35:54;25.20;;;12.78;;
27305;SDS011;14792;50.886;6.468;2024-01-30T05:38:56;25.20;;;11.83;;
27305;SDS011;14792;50.886;6.468;2024-01-30T05:41:57;19.48;;;11.15;;
27305;SDS011;14792;50.886;6.468;2024-01-30T05:44:58;18.32;;;10.60;;
27305;SDS011;14792;50.886;6.468;2024-01-30T05:48:00;17.62;;;9.43;;
27305;SDS011;14792;50.886;6.468;2024-01-30T05:51:02;21.23;;;10.85;;
27305;SDS011;14792;50.886;6.468;2024-01-30T05:54:03;17.02;;;10.25;;
27305;SDS011;14792;50.886;6.468;2024-01-30T05:57:05;18.05;;;9.93;;
27305;SDS011;14792;50.886;6.468;2024-01-30T06:00:06;15.70;;;9.70;;
27305;SDS011;14792;50.886;6.468;2024-01-30T06:03:08;14.23;;;9.30;;
27305;SDS011;14792;50.886;6.468;2024-01-30T06:06:10;17.50;;;9.33;;
27305;SDS011;14792;50.886;6.468;2024-01-30T06:09:11;19.62;;;10.38;;
27305;SDS011;14792;50.886;6.468;2024-01-30T06:12:13;19.27;;;10.23;;
27305;SDS011;14792;50.886;6.468;2024-01-30T06:15:14;13.40;;;9.48;;
27305;SDS011;14792;50.886;6.468;2024-01-30T06:18:16;18.57;;;9.50;;
27305;SDS011;14792;50.886;6.468;2024-01-30T06:21:17;16.67;;;9.23;;
27305;SDS011;14792;50.886;6.468;2024-01-30T06:24:19;15.90;;;9.08;;
27305;SDS011;14792;50.886;6.468;2024-01-30T06:27:21;17.05;;;9.93;;
27305;SDS011;14792;50.886;6.468;2024-01-30T06:30:22;16.93;;;9.60;;
27305;SDS011;14792;50.886;6.468;2024-01-30T06:33:24;19.67;;;9.85;;
27305;SDS011;14792;50.886;6.468;2024-01-30T06:36:25;13.75;;;9.65;;
27305;SDS011;14792;50.886;6.468;2024-01-30T06:39:27;15.18;;;9.80;;
27305;SDS011;14792;50.886;6.468;2024-01-30T06:42:29;15.48;;;9.63;;
27305;SDS011;14792;50.886;6.468;2024-01-30T06:45:30;17.75;;;10.18;;
27305;SDS011;14792;50.886;6.468;2024-01-30T06:48:32;15.28;;;10.00;;
27305;SDS011;14792;50.886;6.468;2024-01-30T06:51:33;17.40;;;9.60;;
27305;SDS011;14792;50.886;6.468;2024-01-30T06:54:35;15.45;;;9.65;;
27305;SDS011;14792;50.886;6.468;2024-01-30T06:57:36;14.25;;;9.10;;
27305;SDS011;14792;50.886;6.468;2024-01-30T07:00:38;14.05;;;9.18;;
27305;SDS011;14792;50.886;6.468;2024-01-30T07:03:40;15.05;;;9.68;;
27305;SDS011;14792;50.886;6.468;2024-01-30T07:06:41;14.75;;;9.03;;
27305;SDS011;14792;50.886;6.468;2024-01-30T07:09:43;15.55;;;9.23;;
27305;SDS011;14792;50.886;6.468;2024-01-30T07:12:44;16.55;;;8.70;;
27305;SDS011;14792;50.886;6.468;2024-01-30T07:15:52;13.93;;;8.58;;
27305;SDS011;14792;50.886;6.468;2024-01-30T07:18:56;15.58;;;8.60;;
27305;SDS011;14792;50.886;6.468;2024-01-30T07:21:57;14.60;;;8.28;;
27305;SDS011;14792;50.886;6.468;2024-01-30T07:24:59;16.42;;;7.83;;
27305;SDS011;14792;50.886;6.468;2024-01-30T07:28:01;20.55;;;8.08;;
27305;SDS011;14792;50.886;6.468;2024-01-30T07:31:02;24.63;;;9.08;;
27305;SDS011;14792;50.886;6.468;2024-01-30T07:34:04;20.95;;;8.88;;
27305;SDS011;14792;50.886;6.468;2024-01-30T07:37:05;18.52;;;8.78;;
27305;SDS011;14792;50.886;6.468;2024-01-30T07:40:07;24.12;;;10.03;;
27305;SDS011;14792;50.886;6.468;2024-01-30T07:43:08;22.60;;;9.78;;
27305;SDS011;14792;50.886;6.468;2024-01-30T07:46:10;20.50;;;10.08;;
27305;SDS011;14792;50.886;6.468;2024-01-30T07:49:12;18.82;;;9.95;;
27305;SDS011;14792;50.886;6.468;2024-01-30T07:52:16;21.30;;;10.00;;
27305;SDS011;14792;50.886;6.468;2024-01-30T07:55:36;21.73;;;9.33;;
27305;SDS011;14792;50.886;6.468;2024-01-30T07:58:37;17.48;;;9.60;;
27305;SDS011;14792;50.886;6.468;2024-01-30T08:05:07;24.67;;;10.15;;
27305;SDS011;14792;50.886;6.468;2024-01-30T08:08:08;24.32;;;10.30;;
27305;SDS011;14792;50.886;6.468;2024-01-30T08:11:10;18.77;;;10.15;;
27305;SDS011;14792;50.886;6.468;2024-01-30T08:17:13;21.37;;;10.18;;
27305;SDS011;14792;50.886;6.468;2024-01-30T08:20:15;13.83;;;9.18;;
27305;SDS011;14792;50.886;6.468;2024-01-30T08:23:16;19.87;;;10.00;;
27305;SDS011;14792;50.886;6.468;2024-01-30T08:29:49;17.35;;;9.73;;
27305;SDS011;14792;50.886;6.468;2024-01-30T08:32:57;20.23;;;9.68;;
27305;SDS011;14792;50.886;6.468;2024-01-30T08:36:04;20.60;;;9.60;;
27305;SDS011;14792;50.886;6.468;2024-01-30T08:39:35;21.57;;;10.40;;
27305;SDS011;14792;50.886;6.468;2024-01-30T08:42:37;24.85;;;10.60;;
27305;SDS011;14792;50.886;6.468;2024-01-30T08:45:38;24.67;;;10.58;;
27305;SDS011;14792;50.886;6.468;2024-01-30T08:48:43;18.00;;;9.58;;
27305;SDS011;14792;50.886;6.468;2024-01-30T08:55:18;16.40;;;9.68;;
27305;SDS011;14792;50.886;6.468;2024-01-30T08:58:29;17.45;;;9.85;;
27305;SDS011;14792;50.886;6.468;2024-01-30T09:01:31;34.00;;;18.10;;
27305;SDS011;14792;50.886;6.468;2024-01-30T09:04:32;22.00;;;9.58;;
27305;SDS011;14792;50.886;6.468;2024-01-30T09:07:34;19.62;;;10.80;;
27305;SDS011;14792;50.886;6.468;2024-01-30T09:10:35;19.90;;;10.00;;
27305;SDS011;14792;50.886;6.468;2024-01-30T09:13:46;17.42;;;9.03;;
27305;SDS011;14792;50.886;6.468;2024-01-30T09:16:50;19.80;;;9.30;;
27305;SDS011;14792;50.886;6.468;2024-01-30T09:26:36;17.73;;;10.05;;
27305;SDS011;14792;50.886;6.468;2024-01-30T09:29:38;17.82;;;9.55;;
27305;SDS011;14792;50.886;6.468;2024-01-30T09:32:39;20.90;;;11.10;;
27305;SDS011;14792;50.886;6.468;2024-01-30T09:35:41;26.02;;;13.15;;
27305;SDS011;14792;50.886;6.468;2024-01-30T09:38:42;26.75;;;12.98;;
27305;SDS011;14792;50.886;6.468;2024-01-30T09:41:48;23.57;;;13.32;;
27305;SDS011;14792;50.886;6.468;2024-01-30T09:44:54;21.93;;;11.60;;
27305;SDS011;14792;50.886;6.468;2024-01-30T09:47:58;18.32;;;11.15;;
27305;SDS011;14792;50.886;6.468;2024-01-30T09:50:57;15.60;;;9.35;;
27305;SDS011;14792;50.886;6.468;2024-01-30T09:53:59;18.80;;;10.63;;
27305;SDS011;14792;50.886;6.468;2024-01-30T09:57:01;13.20;;;8.18;;
27305;SDS011;14792;50.886;6.468;2024-01-30T10:00:03;19.57;;;11.35;;
27305;SDS011;14792;50.886;6.468;2024-01-30T10:03:06;20.40;;;11.05;;
27305;SDS011;14792;50.886;6.468;2024-01-30T10:06:08;20.30;;;11.03;;
27305;SDS011;14792;50.886;6.468;2024-01-30T10:09:10;21.62;;;12.90;;
27305;SDS011;14792;50.886;6.468;2024-01-30T10:12:11;20.77;;;12.82;;
27305;SDS011;14792;50.886;6.468;2024-01-30T10:15:13;21.10;;;13.25;;
27305;SDS011;14792;50.886;6.468;2024-01-30T10:18:14;19.87;;;10.82;;
27305;SDS011;14792;50.886;6.468;2024-01-30T10:21:16;20.02;;;10.53;;
27305;SDS011;14792;50.886;6.468;2024-01-30T10:24:18;15.78;;;9.50;;
27305;SDS011;14792;50.886;6.468;2024-01-30T10:27:23;17.85;;;9.75;;
27305;SDS011;14792;50.886;6.468;2024-01-30T10:30:24;19.45;;;11.43;;
27305;SDS011;14792;50.886;6.468;2024-01-30T10:33:26;16.62;;;10.38;;
27305;SDS011;14792;50.886;6.468;2024-01-30T10:36:28;17.07;;;9.90;;
27305;SDS011;14792;50.886;6.468;2024-01-30T10:39:31;18.32;;;8.28;;
27305;SDS011;14792;50.886;6.468;2024-01-30T10:42:32;15.30;;;6.92;;
27305;SDS011;14792;50.886;6.468;2024-01-30T10:45:34;13.50;;;6.15;;
27305;SDS011;14792;50.886;6.468;2024-01-30T10:48:36;13.40;;;6.00;;
27305;SDS011;14792;50.886;6.468;2024-01-30T10:51:37;15.03;;;5.60;;
27305;SDS011;14792;50.886;6.468;2024-01-30T10:54:39;14.78;;;5.25;;
27305;SDS011;14792;50.886;6.468;2024-01-30T10:57:40;15.95;;;5.42;;
27305;SDS011;14792;50.886;6.468;2024-01-30T11:00:42;13.53;;;5.78;;
27305;SDS011;14792;50.886;6.468;2024-01-30T11:03:44;16.52;;;5.50;;
27305;SDS011;14792;50.886;6.468;2024-01-30T11:06:45;12.90;;;5.65;;
27305;SDS011;14792;50.886;6.468;2024-01-30T11:09:50;16.20;;;5.45;;
27305;SDS011;14792;50.886;6.468;2024-01-30T11:12:51;22.93;;;6.37;;
27305;SDS011;14792;50.886;6.468;2024-01-30T11:15:53;16.70;;;5.92;;
27305;SDS011;14792;50.886;6.468;2024-01-30T11:18:54;16.73;;;6.37;;
27305;SDS011;14792;50.886;6.468;2024-01-30T11:21:56;18.98;;;6.67;;
27305;SDS011;14792;50.886;6.468;2024-01-30T11:24:57;16.90;;;7.35;;
27305;SDS011;14792;50.886;6.468;2024-01-30T11:27:59;17.05;;;6.42;;
27305;SDS011;14792;50.886;6.468;2024-01-30T11:31:06;17.70;;;6.40;;
27305;SDS011;14792;50.886;6.468;2024-01-30T11:34:08;13.85;;;6.75;;
27305;SDS011;14792;50.886;6.468;2024-01-30T11:37:10;15.00;;;6.15;;
27305;SDS011;14792;50.886;6.468;2024-01-30T11:40:11;17.25;;;6.42;;
27305;SDS011;14792;50.886;6.468;2024-01-30T11:43:13;16.52;;;6.10;;
27305;SDS011;14792;50.886;6.468;2024-01-30T11:46:15;17.20;;;6.50;;
27305;SDS011;14792;50.886;6.468;2024-01-30T11:49:16;17.62;;;6.35;;
27305;SDS011;14792;50.886;6.468;2024-01-30T11:52:18;16.75;;;6.62;;
27305;SDS011;14792;50.886;6.468;2024-01-30T11:55:19;15.90;;;6.80;;
27305;SDS011;14792;50.886;6.468;2024-01-30T11:58:24;16.45;;;7.00;;
27305;SDS011;14792;50.886;6.468;2024-01-30T12:01:23;14.85;;;6.17;;
27305;SDS011;14792;50.886;6.468;2024-01-30T12:04:27;13.10;;;5.90;;
27305;SDS011;14792;50.886;6.468;2024-01-30T12:07:26;14.73;;;6.03;;
27305;SDS011;14792;50.886;6.468;2024-01-30T12:10:27;12.40;;;5.62;;
27305;SDS011;14792;50.886;6.468;2024-01-30T12:13:29;11.22;;;5.03;;
27305;SDS011;14792;50.886;6.468;2024-01-30T12:16:31;10.82;;;4.42;;
27305;SDS011;14792;50.886;6.468;2024-01-30T12:19:32;11.10;;;5.50;;
27305;SDS011;14792;50.886;6.468;2024-01-30T12:22:37;15.78;;;5.78;;
27305;SDS011;14792;50.886;6.468;2024-01-30T12:25:41;13.62;;;5.97;;
27305;SDS011;14792;50.886;6.468;2024-01-30T12:28:50;14.83;;;6.20;;
27305;SDS011;14792;50.886;6.468;2024-01-30T12:31:53;16.95;;;6.33;;
27305;SDS011;14792;50.886;6.468;2024-01-30T12:34:55;11.97;;;6.37;;
27305;SDS011;14792;50.886;6.468;2024-01-30T12:37:56;12.55;;;6.47;;
27305;SDS011;14792;50.886;6.468;2024-01-30T12:40:58;16.32;;;7.00;;
27305;SDS011;14792;50.886;6.468;2024-01-30T12:43:59;16.27;;;6.60;;
27305;SDS011;14792;50.886;6.468;2024-01-30T12:47:03;13.15;;;6.65;;
27305;SDS011;14792;50.886;6.468;2024-01-30T12:50:05;12.82;;;6.60;;
27305;SDS011;14792;50.886;6.468;2024-01-30T12:53:06;11.33;;;6.33;;
27305;SDS011;14792;50.886;6.468;2024-01-30T12:56:08;16.17;;;7.03;;
27305;SDS011;14792;50.886;6.468;2024-01-30T12:59:10;12.65;;;7.47;;
27305;SDS011;14792;50.886;6.468;2024-01-30T13:02:14;17.10;;;7.90;;
27305;SDS011;14792;50.886;6.468;2024-01-30T13:05:16;11.38;;;6.65;;
27305;SDS011;14792;50.886;6.468;2024-01-30T13:08:17;13.62;;;7.00;;
27305;SDS011;14792;50.886;6.468;2024-01-30T13:11:19;12.35;;;6.95;;
27305;SDS011;14792;50.886;6.468;2024-01-30T13:14:20;11.15;;;6.80;;
27305;SDS011;14792;50.886;6.468;2024-01-30T13:17:22;14.87;;;7.00;;
27305;SDS011;14792;50.886;6.468;2024-01-30T13:20:24;11.90;;;7.15;;
27305;SDS011;14792;50.886;6.468;2024-01-30T13:23:25;13.40;;;7.72;;
27305;SDS011;14792;50.886;6.468;2024-01-30T13:26:27;18.05;;;7.45;;
27305;SDS011;14792;50.886;6.468;2024-01-30T13:29:28;19.00;;;9.13;;
27305;SDS011;14792;50.886;6.468;2024-01-30T13:32:30;17.80;;;7.87;;
27305;SDS011;14792;50.886;6.468;2024-01-30T13:35:32;17.85;;;7.83;;
27305;SDS011;14792;50.886;6.468;2024-01-30T13:38:33;18.45;;;8.05;;
27305;SDS011;14792;50.886;6.468;2024-01-30T13:41:35;16.93;;;7.87;;
27305;SDS011;14792;50.886;6.468;2024-01-30T13:44:36;15.55;;;7.92;;
27305;SDS011;14792;50.886;6.468;2024-01-30T13:47:38;21.52;;;8.00;;
27305;SDS011;14792;50.886;6.468;2024-01-30T13:50:40;13.75;;;7.85;;
27305;SDS011;14792;50.886;6.468;2024-01-30T13:53:41;19.67;;;7.97;;
27305;SDS011;14792;50.886;6.468;2024-01-30T13:56:43;18.95;;;8.05;;
27305;SDS011;14792;50.886;6.468;2024-01-30T13:59:44;15.50;;;8.20;;
27305;SDS011;14792;50.886;6.468;2024-01-30T14:02:46;18.30;;;8.05;;
27305;SDS011;14792;50.886;6.468;2024-01-30T14:05:47;16.70;;;7.97;;
27305;SDS011;14792;50.886;6.468;2024-01-30T14:08:49;16.23;;;7.53;;
27305;SDS011;14792;50.886;6.468;2024-01-30T14:11:51;17.02;;;8.13;;
27305;SDS011;14792;50.886;6.468;2024-01-30T14:14:52;15.00;;;8.08;;
27305;SDS011;14792;50.886;6.468;2024-01-30T14:17:54;17.25;;;7.85;;
27305;SDS011;14792;50.886;6.468;2024-01-30T14:20:55;19.12;;;8.40;;
27305;SDS011;14792;50.886;6.468;2024-01-30T14:23:57;18.12;;;8.38;;
27305;SDS011;14792;50.886;6.468;2024-01-30T14:26:59;18.40;;;7.97;;
27305;SDS011;14792;50.886;6.468;2024-01-30T14:30:00;13.68;;;7.87;;
27305;SDS011;14792;50.886;6.468;2024-01-30T14:33:02;15.60;;;7.75;;
27305;SDS011;14792;50.886;6.468;2024-01-30T14:36:03;13.65;;;7.00;;
27305;SDS011;14792;50.886;6.468;2024-01-30T14:39:05;15.18;;;7.80;;
27305;SDS011;14792;50.886;6.468;2024-01-30T14:42:07;13.55;;;8.05;;
27305;SDS011;14792;50.886;6.468;2024-01-30T14:45:08;15.15;;;8.28;;
27305;SDS011;14792;50.886;6.468;2024-01-30T14:48:10;20.00;;;8.23;;
27305;SDS011;14792;50.886;6.468;2024-01-30T14:51:11;15.72;;;8.50;;
27305;SDS011;14792;50.886;6.468;2024-01-30T14:54:13;23.22;;;8.73;;
27305;SDS011;14792;50.886;6.468;2024-01-30T14:57:15;17.50;;;8.38;;
27305;SDS011;14792;50.886;6.468;2024-01-30T15:00:16;19.82;;;8.93;;
27305;SDS011;14792;50.886;6.468;2024-01-30T15:03:18;19.92;;;8.95;;
27305;SDS011;14792;50.886;6.468;2024-01-30T15:06:19;17.70;;;8.83;;
27305;SDS011;14792;50.886;6.468;2024-01-30T15:09:21;19.07;;;9.33;;
27305;SDS011;14792;50.886;6.468;2024-01-30T15:12:22;21.70;;;10.65;;
27305;SDS011;14792;50.886;6.468;2024-01-30T15:15:24;17.90;;;10.00;;
27305;SDS011;14792;50.886;6.468;2024-01-30T15:18:26;22.35;;;10.40;;
27305;SDS011;14792;50.886;6.468;2024-01-30T15:21:27;21.75;;;9.63;;
27305;SDS011;14792;50.886;6.468;2024-01-30T15:24:29;21.07;;;9.60;;
27305;SDS011;14792;50.886;6.468;2024-01-30T15:27:30;21.23;;;9.13;;
27305;SDS011;14792;50.886;6.468;2024-01-30T15:30:32;19.42;;;9.33;;
27305;SDS011;14792;50.886;6.468;2024-01-30T15:33:36;18.48;;;8.83;;
27305;SDS011;14792;50.886;6.468;2024-01-30T15:36:38;16.73;;;9.35;;
27305;SDS011;14792;50.886;6.468;2024-01-30T15:39:39;16.23;;;8.68;;
27305;SDS011;14792;50.886;6.468;2024-01-30T15:42:41;16.77;;;7.62;;
27305;SDS011;14792;50.886;6.468;2024-01-30T15:45:43;20.55;;;8.30;;
27305;SDS011;14792;50.886;6.468;2024-01-30T15:48:44;16.95;;;7.53;;
27305;SDS011;14792;50.886;6.468;2024-01-30T15:51:46;14.70;;;5.50;;
27305;SDS011;14792;50.886;6.468;2024-01-30T15:54:47;13.35;;;5.05;;
27305;SDS011;14792;50.886;6.468;2024-01-30T15:57:49;12.33;;;4.75;;
27305;SDS011;14792;50.886;6.468;2024-01-30T16:00:51;13.78;;;4.33;;
27305;SDS011;14792;50.886;6.468;2024-01-30T16:03:52;10.38;;;4.70;;
27305;SDS011;14792;50.886;6.468;2024-01-30T16:06:54;10.82;;;3.90;;
27305;SDS011;14792;50.886;6.468;2024-01-30T16:09:55;12.63;;;4.85;;
27305;SDS011;14792;50.886;6.468;2024-01-30T16:12:57;8.98;;;4.62;;
27305;SDS011;14792;50.886;6.468;2024-01-30T16:15:59;8.60;;;3.62;;
27305;SDS011;14792;50.886;6.468;2024-01-30T16:19:00;7.47;;;3.45;;
27305;SDS011;14792;50.886;6.468;2024-01-30T16:22:02;6.85;;;2.77;;
27305;SDS011;14792;50.886;6.468;2024-01-30T16:25:03;5.17;;;2.47;;
27305;SDS011;14792;50.886;6.468;2024-01-30T16:28:05;7.37;;;2.40;;
27305;SDS011;14792;50.886;6.468;2024-01-30T16:31:06;8.43;;;2.75;;
27305;SDS011;14792;50.886;6.468;2024-01-30T16:34:08;8.15;;;2.77;;
27305;SDS011;14792;50.886;6.468;2024-01-30T16:37:10;10.72;;;2.85;;
27305;SDS011;14792;50.886;6.468;2024-01-30T16:40:11;12.18;;;4.12;;
27305;SDS011;14792;50.886;6.468;2024-01-30T16:43:13;4.83;;;2.27;;
27305;SDS011;14792;50.886;6.468;2024-01-30T16:46:14;4.83;;;1.80;;
27305;SDS011;14792;50.886;6.468;2024-01-30T16:49:16;6.17;;;1.50;;
27305;SDS011;14792;50.886;6.468;2024-01-30T16:52:18;9.65;;;1.40;;
27305;SDS011;14792;50.886;6.468;2024-01-30T16:55:19;5.22;;;1.60;;
27305;SDS011;14792;50.886;6.468;2024-01-30T16:58:21;6.72;;;1.75;;
27305;SDS011;14792;50.886;6.468;2024-01-30T17:01:22;5.10;;;1.60;;
27305;SDS011;14792;50.886;6.468;2024-01-30T17:04:24;5.17;;;2.10;;
27305;SDS011;14792;50.886;6.468;2024-01-30T17:07:25;4.75;;;1.70;;
27305;SDS011;14792;50.886;6.468;2024-01-30T17:10:27;8.13;;;2.20;;
27305;SDS011;14792;50.886;6.468;2024-01-30T17:13:29;5.75;;;1.87;;
27305;SDS011;14792;50.886;6.468;2024-01-30T17:16:30;7.08;;;2.00;;
27305;SDS011;14792;50.886;6.468;2024-01-30T17:19:32;5.37;;;1.65;;
27305;SDS011;14792;50.886;6.468;2024-01-30T17:22:33;5.65;;;1.70;;
27305;SDS011;14792;50.886;6.468;2024-01-30T17:25:35;5.10;;;2.00;;
27305;SDS011;14792;50.886;6.468;2024-01-30T17:28:37;4.00;;;1.60;;
27305;SDS011;14792;50.886;6.468;2024-01-30T17:31:38;7.65;;;1.80;;
27305;SDS011;14792;50.886;6.468;2024-01-30T17:34:40;5.47;;;1.70;;
27305;SDS011;14792;50.886;6.468;2024-01-30T17:37:41;4.55;;;1.85;;
27305;SDS011;14792;50.886;6.468;2024-01-30T17:40:43;6.40;;;2.45;;
27305;SDS011;14792;50.886;6.468;2024-01-30T17:43:44;5.85;;;2.98;;
27305;SDS011;14792;50.886;6.468;2024-01-30T17:46:46;9.83;;;3.77;;
27305;SDS011;14792;50.886;6.468;2024-01-30T17:49:48;6.37;;;1.98;;
27305;SDS011;14792;50.886;6.468;2024-01-30T17:52:49;10.75;;;2.08;;
27305;SDS011;14792;50.886;6.468;2024-01-30T17:55:51;5.78;;;1.85;;
27305;SDS011;14792;50.886;6.468;2024-01-30T17:58:52;6.50;;;1.60;;
27305;SDS011;14792;50.886;6.468;2024-01-30T18:01:54;4.87;;;1.70;;
27305;SDS011;14792;50.886;6.468;2024-01-30T18:04:56;3.67;;;1.22;;
27305;SDS011;14792;50.886;6.468;2024-01-30T18:07:57;5.85;;;1.50;;
27305;SDS011;14792;50.886;6.468;2024-01-30T18:10:59;4.33;;;2.00;;
27305;SDS011;14792;50.886;6.468;2024-01-30T18:14:00;6.05;;;1.80;;
27305;SDS011;14792;50.886;6.468;2024-01-30T18:17:02;5.05;;;2.10;;